createdAt,value
2016-10-06T17:23:40.982Z,953.41
2016-10-06T17:24:40.953Z,953.36
2016-10-06T17:25:40.972Z,953.36
2016-10-06T17:26:40.993Z,953.41
2016-10-06T17:27:41.013Z,953.41
2016-10-06T17:28:41.034Z,953.43
2016-10-06T17:29:41.054Z,953.44
2016-10-06T17:30:41.073Z,953.41
2016-10-06T17:31:41.092Z,953.45
2016-10-06T17:32:41.114Z,953.47
2016-10-06T17:33:41.151Z,953.46
2016-10-06T17:34:41.154Z,953.46
2016-10-06T17:35:41.174Z,953.49
2016-10-06T17:36:41.195Z,953.52
2016-10-06T17:37:41.214Z,953.53
2016-10-06T17:38:41.285Z,953.5
2016-10-06T17:39:41.254Z,953.52
2016-10-06T17:40:41.275Z,953.54
2016-10-06T17:41:41.307Z,953.53
2016-10-06T17:42:41.321Z,953.58
2016-10-06T17:43:41.490Z,953.55
2016-10-06T17:44:41.357Z,953.56
2016-10-06T17:45:41.375Z,953.6
2016-10-06T17:46:41.396Z,953.61
2016-10-06T17:47:41.415Z,953.59
2016-10-06T17:48:41.486Z,953.62
2016-10-06T17:49:41.456Z,953.58
2016-10-06T17:50:41.478Z,953.61
2016-10-06T17:51:41.497Z,953.6
2016-10-06T17:52:41.519Z,953.61
2016-10-06T17:53:41.537Z,953.61
2016-10-06T17:54:41.557Z,953.57
2016-10-06T17:55:41.575Z,953.58
2016-10-06T17:56:41.599Z,953.56
2016-10-06T17:57:41.617Z,953.56
2016-10-06T17:58:41.660Z,953.54
2016-10-06T17:59:41.656Z,953.55
2016-10-06T18:00:41.676Z,953.53
2016-10-06T18:01:41.698Z,953.54
2016-10-06T18:02:41.718Z,953.58
2016-10-06T18:03:43.240Z,953.58
2016-10-06T18:04:41.758Z,953.55
2016-10-06T18:05:41.778Z,953.64
2016-10-06T18:06:41.798Z,953.66
2016-10-06T18:07:41.818Z,953.67
2016-10-06T18:08:41.838Z,953.7
2016-10-06T18:09:41.859Z,953.66
2016-10-06T18:10:41.878Z,953.69
2016-10-06T18:11:41.899Z,953.73
2016-10-06T18:12:41.919Z,953.7
2016-10-06T18:13:41.939Z,953.69
2016-10-06T18:14:41.961Z,953.69
2016-10-06T18:15:41.979Z,953.72
2016-10-06T18:16:42.000Z,953.71
2016-10-06T18:17:42.021Z,953.71
2016-10-06T18:18:42.040Z,953.74
2016-10-06T18:19:42.082Z,953.73
2016-10-06T18:20:42.081Z,953.73
2016-10-06T18:21:42.100Z,953.7
2016-10-06T18:22:42.120Z,953.74
2016-10-06T18:23:42.142Z,953.75
2016-10-06T18:24:42.193Z,953.76
2016-10-06T18:25:42.182Z,953.75
2016-10-06T18:26:42.209Z,953.76
2016-10-06T18:27:42.222Z,953.75
2016-10-06T18:28:42.242Z,953.7
2016-10-06T18:29:42.261Z,953.71
2016-10-06T18:30:42.281Z,953.71
2016-10-06T18:31:42.303Z,953.68
2016-10-06T18:32:42.322Z,953.69
2016-10-06T18:33:42.343Z,953.68
2016-10-06T18:34:42.363Z,953.69
2016-10-06T18:35:42.385Z,953.66
2016-10-06T18:36:42.403Z,953.63
2016-10-06T18:37:42.424Z,953.66
2016-10-06T18:38:42.445Z,953.63
2016-10-06T18:39:42.464Z,953.63
2016-10-06T18:40:42.485Z,953.64
2016-10-06T18:41:42.505Z,953.68
2016-10-06T18:42:42.525Z,953.62
2016-10-06T18:43:42.545Z,953.65
2016-10-06T18:44:42.566Z,953.63
2016-10-06T18:45:42.586Z,953.57
2016-10-06T18:46:42.606Z,953.59
2016-10-06T18:47:42.626Z,953.59
2016-10-06T18:48:42.646Z,953.53
2016-10-06T18:49:42.668Z,953.53
2016-10-06T18:50:42.687Z,953.53
2016-10-06T18:51:42.707Z,953.56
2016-10-06T18:52:42.726Z,953.55
2016-10-06T18:53:42.749Z,953.57
2016-10-06T18:54:42.767Z,953.52
2016-10-06T18:55:42.787Z,953.54
2016-10-06T18:56:42.808Z,953.57
2016-10-06T18:57:42.828Z,953.55
2016-10-06T18:58:42.848Z,953.58
2016-10-06T18:59:42.869Z,953.59
2016-10-06T19:00:42.984Z,953.58
2016-10-06T19:01:42.910Z,953.58
2016-10-06T19:02:42.928Z,953.56
2016-10-06T19:03:42.951Z,953.54
2016-10-06T19:04:42.987Z,953.57
2016-10-06T19:05:42.990Z,953.56
2016-10-06T19:06:43.009Z,953.49
2016-10-06T19:07:43.030Z,953.52
2016-10-06T19:08:43.048Z,953.53
2016-10-06T19:09:43.120Z,953.52
2016-10-06T19:10:43.090Z,953.5
2016-10-06T19:11:43.112Z,953.5
2016-10-06T19:12:43.143Z,953.52
2016-10-06T19:13:43.151Z,953.5
2016-10-06T19:14:43.170Z,953.5
2016-10-06T19:15:43.192Z,953.5
2016-10-06T19:16:43.217Z,953.51
2016-10-06T19:17:43.231Z,953.47
2016-10-06T19:18:43.252Z,953.47
2016-10-06T19:19:43.272Z,953.49
2016-10-06T19:20:43.292Z,953.51
2016-10-06T19:21:43.313Z,953.51
2016-10-06T19:22:43.333Z,953.52
2016-10-06T19:23:43.353Z,953.56
2016-10-06T19:24:43.425Z,953.58
2016-10-06T19:25:43.393Z,953.58
2016-10-06T19:26:43.413Z,953.6
2016-10-06T19:27:43.437Z,953.62
2016-10-06T19:28:43.457Z,953.61
2016-10-06T19:29:43.565Z,953.62
2016-10-06T19:30:43.494Z,953.59
2016-10-06T19:31:43.515Z,953.65
2016-10-06T19:32:43.535Z,953.62
2016-10-06T19:33:43.554Z,953.63
2016-10-06T19:34:43.625Z,953.64
2016-10-06T19:35:43.603Z,953.62
2016-10-06T19:36:43.616Z,953.65
2016-10-06T19:37:43.637Z,953.63
2016-10-06T19:38:43.655Z,953.68
2016-10-06T19:39:43.727Z,953.64
2016-10-06T19:40:43.697Z,953.58
2016-10-06T19:41:43.903Z,953.62
2016-10-06T19:42:43.736Z,953.6
2016-10-06T19:43:43.756Z,953.63
2016-10-06T19:44:43.777Z,953.63
2016-10-06T19:45:43.796Z,953.63
2016-10-06T19:46:43.817Z,953.67
2016-10-06T19:47:43.838Z,953.66
2016-10-06T19:48:43.857Z,953.66
2016-10-06T19:49:43.877Z,953.62
2016-10-06T19:50:43.898Z,953.63
2016-10-06T19:51:43.919Z,953.65
2016-10-06T19:52:43.954Z,953.62
2016-10-06T19:53:43.958Z,953.65
2016-10-06T19:54:44.028Z,953.6
2016-10-06T19:55:43.998Z,953.65
2016-10-06T19:56:44.017Z,953.62
2016-10-06T19:57:44.045Z,953.62
2016-10-06T19:58:44.060Z,953.59
2016-10-06T19:59:44.078Z,953.6
2016-10-06T20:00:44.098Z,953.58
2016-10-06T20:01:44.118Z,953.58
2016-10-06T20:02:44.140Z,953.55
2016-10-06T20:03:44.157Z,953.54
2016-10-06T20:04:44.178Z,953.54
2016-10-06T20:05:44.202Z,953.54
2016-10-06T20:06:44.218Z,953.54
2016-10-06T20:07:44.239Z,953.53
2016-10-06T20:08:44.258Z,953.53
2016-10-06T20:09:44.279Z,953.53
2016-10-06T20:10:44.298Z,953.55
2016-10-06T20:11:44.318Z,953.52
2016-10-06T20:12:44.340Z,953.54
2016-10-06T20:13:44.359Z,953.55
2016-10-06T20:14:44.378Z,953.55
2016-10-06T20:15:44.399Z,953.58
2016-10-06T20:16:44.418Z,953.51
2016-10-06T20:17:44.439Z,953.52
2016-10-06T20:18:44.459Z,953.54
2016-10-06T20:19:44.529Z,953.5
2016-10-06T20:20:44.499Z,953.45
2016-10-06T20:21:44.519Z,953.47
2016-10-06T20:22:44.539Z,953.47
2016-10-06T20:23:44.558Z,953.43
2016-10-06T20:24:44.578Z,953.41
2016-10-06T20:25:44.597Z,953.44
2016-10-06T20:26:44.618Z,953.42
2016-10-06T20:27:44.638Z,953.41
2016-10-06T20:28:44.658Z,953.42
2016-10-06T20:29:44.677Z,953.37
2016-10-06T20:30:45.322Z,953.4
2016-10-06T20:31:44.718Z,953.36
2016-10-06T20:32:44.737Z,953.35
2016-10-06T20:33:44.758Z,953.39
2016-10-06T20:34:44.778Z,953.37
2016-10-06T20:35:44.799Z,953.36
2016-10-06T20:36:44.817Z,953.33
2016-10-06T20:37:44.839Z,953.33
2016-10-06T20:38:44.858Z,953.28
2016-10-06T20:39:44.878Z,953.31
2016-10-06T20:40:44.898Z,953.27
2016-10-06T20:41:44.917Z,953.29
2016-10-06T20:42:44.938Z,953.3
2016-10-06T20:43:44.957Z,953.27
2016-10-06T20:44:44.978Z,953.31
2016-10-06T20:45:44.997Z,953.31
2016-10-06T20:46:45.017Z,953.28
2016-10-06T20:47:45.037Z,953.27
2016-10-06T20:48:45.055Z,953.27
2016-10-06T20:49:45.077Z,953.28
2016-10-06T20:50:45.103Z,953.27
2016-10-06T20:51:45.116Z,953.29
2016-10-06T20:52:45.136Z,953.28
2016-10-06T20:53:45.156Z,953.3
2016-10-06T20:54:45.175Z,953.32
2016-10-06T20:55:45.196Z,953.28
2016-10-06T20:56:45.231Z,953.33
2016-10-06T20:57:45.236Z,953.3
2016-10-06T20:58:45.260Z,953.33
2016-10-06T20:59:45.275Z,953.28
2016-10-06T21:00:45.295Z,953.26
2016-10-06T21:01:45.316Z,953.31
2016-10-06T21:02:45.335Z,953.29
2016-10-06T21:03:45.355Z,953.31
2016-10-06T21:04:45.375Z,953.3
2016-10-06T21:05:45.398Z,953.32
2016-10-06T21:06:45.415Z,953.29
2016-10-06T21:07:45.434Z,953.33
2016-10-06T21:08:45.454Z,953.34
2016-10-06T21:09:45.474Z,953.29
2016-10-06T21:10:45.495Z,953.33
2016-10-06T21:11:45.514Z,953.33
2016-10-06T21:12:45.534Z,953.36
2016-10-06T21:13:45.554Z,953.37
2016-10-06T21:14:45.574Z,953.34
2016-10-06T21:15:45.595Z,953.33
2016-10-06T21:16:45.613Z,953.37
2016-10-06T21:17:45.634Z,953.37
2016-10-06T21:18:45.654Z,953.35
2016-10-06T21:19:45.674Z,953.33
2016-10-06T21:20:45.694Z,953.36
2016-10-06T21:21:45.714Z,953.3
2016-10-06T21:22:45.734Z,953.33
2016-10-06T21:23:45.755Z,953.27
2016-10-06T21:24:45.773Z,953.25
2016-10-06T21:25:45.793Z,953.28
2016-10-06T21:26:45.814Z,953.27
2016-10-06T21:27:45.832Z,953.26
2016-10-06T21:28:45.854Z,953.26
2016-10-06T21:29:45.874Z,953.26
2016-10-06T21:30:45.894Z,953.29
2016-10-06T21:31:45.913Z,953.25
2016-10-06T21:32:45.934Z,953.26
2016-10-06T21:33:45.954Z,953.23
2016-10-06T21:34:45.975Z,953.22
2016-10-06T21:35:45.993Z,953.16
2016-10-06T21:36:46.036Z,953.16
2016-10-06T21:37:46.034Z,953.1
2016-10-06T21:38:46.053Z,953.13
2016-10-06T21:39:46.073Z,953.11
2016-10-06T21:40:46.094Z,953.11
2016-10-06T21:41:46.114Z,953.07
2016-10-06T21:42:46.308Z,953.08
2016-10-06T21:43:46.160Z,953.12
2016-10-06T21:44:46.174Z,953.12
2016-10-06T21:45:46.193Z,953.09
2016-10-06T21:46:46.213Z,953.07
2016-10-06T21:47:46.234Z,953.05
2016-10-06T21:48:46.254Z,953.04
2016-10-06T21:49:46.273Z,953.04
2016-10-06T21:50:46.293Z,953.03
2016-10-06T21:51:46.317Z,953.01
2016-10-06T21:52:46.334Z,953.01
2016-10-06T21:53:46.353Z,952.99
2016-10-06T21:54:46.373Z,952.96
2016-10-06T21:55:46.395Z,952.99
2016-10-06T21:56:46.416Z,952.93
2016-10-06T21:57:46.433Z,952.96
2016-10-06T21:58:46.453Z,952.97
2016-10-06T21:59:46.474Z,952.93
2016-10-06T22:00:46.494Z,952.91
2016-10-06T22:01:46.515Z,952.92
2016-10-06T22:02:46.536Z,952.92
2016-10-06T22:03:46.554Z,952.92
2016-10-06T22:04:46.573Z,952.88
2016-10-06T22:05:46.594Z,952.91
2016-10-06T22:06:46.618Z,952.89
2016-10-06T22:07:46.635Z,952.87
2016-10-06T22:08:46.655Z,952.84
2016-10-06T22:09:46.675Z,952.88
2016-10-06T22:10:46.695Z,952.84
2016-10-06T22:11:46.713Z,952.81
2016-10-06T22:12:46.734Z,952.77
2016-10-06T22:13:46.755Z,952.79
2016-10-06T22:14:46.775Z,952.75
2016-10-06T22:15:46.794Z,952.73
2016-10-06T22:16:46.815Z,952.7
2016-10-06T22:17:46.834Z,952.71
2016-10-06T22:18:46.853Z,952.7
2016-10-06T22:19:46.873Z,952.71
2016-10-06T22:20:46.895Z,952.79
2016-10-06T22:21:46.937Z,952.8
2016-10-06T22:22:46.934Z,952.78
2016-10-06T22:23:46.955Z,952.83
2016-10-06T22:24:46.975Z,952.85
2016-10-06T22:25:46.995Z,952.84
2016-10-06T22:26:47.015Z,952.83
2016-10-06T22:27:47.034Z,952.8
2016-10-06T22:28:47.055Z,952.86
2016-10-06T22:29:47.094Z,952.86
2016-10-06T22:30:47.095Z,952.91
2016-10-06T22:31:47.115Z,952.92
2016-10-06T22:32:47.135Z,952.94
2016-10-06T22:33:47.155Z,952.89
2016-10-06T22:34:47.175Z,952.87
2016-10-06T22:35:47.195Z,952.88
2016-10-06T22:36:47.217Z,952.88
2016-10-06T22:37:47.235Z,952.88
2016-10-06T22:38:47.255Z,952.82
2016-10-06T22:39:47.274Z,952.85
2016-10-06T22:40:47.295Z,952.85
2016-10-06T22:41:47.316Z,952.86
2016-10-06T22:42:47.335Z,952.82
2016-10-06T22:43:47.355Z,952.81
2016-10-06T22:44:47.375Z,952.81
2016-10-06T22:45:47.395Z,952.83
2016-10-06T22:46:47.415Z,952.81
2016-10-06T22:47:47.435Z,952.78
2016-10-06T22:48:47.454Z,952.84
2016-10-06T22:49:47.475Z,952.82
2016-10-06T22:50:47.495Z,952.81
2016-10-06T22:51:47.515Z,952.82
2016-10-06T22:52:47.534Z,952.79
2016-10-06T22:53:47.555Z,952.79
2016-10-06T22:54:47.575Z,952.76
2016-10-06T22:55:47.594Z,952.78
2016-10-06T22:56:47.615Z,952.75
2016-10-06T22:57:47.635Z,952.76
2016-10-06T22:58:47.655Z,952.73
2016-10-06T22:59:47.675Z,952.67
2016-10-06T23:00:47.694Z,952.69
2016-10-06T23:01:47.715Z,952.68
2016-10-06T23:02:47.734Z,952.7
2016-10-06T23:03:47.754Z,952.63
2016-10-06T23:04:47.774Z,952.65
2016-10-06T23:05:47.793Z,952.68
2016-10-06T23:06:47.814Z,952.67
2016-10-06T23:07:47.834Z,952.65
2016-10-06T23:08:47.855Z,952.65
2016-10-06T23:09:47.876Z,952.64
2016-10-06T23:10:47.895Z,952.64
2016-10-06T23:11:47.915Z,952.6
2016-10-06T23:12:47.934Z,952.61
2016-10-06T23:13:47.953Z,952.6
2016-10-06T23:14:47.995Z,952.63
2016-10-06T23:15:47.994Z,952.65
2016-10-06T23:16:48.014Z,952.63
2016-10-06T23:17:48.034Z,952.64
2016-10-06T23:18:48.053Z,952.66
2016-10-06T23:19:48.075Z,952.64
2016-10-06T23:20:48.093Z,952.61
2016-10-06T23:21:48.114Z,952.59
2016-10-06T23:22:48.151Z,952.6
2016-10-06T23:23:48.154Z,952.57
2016-10-06T23:24:48.173Z,952.55
2016-10-06T23:25:48.192Z,952.58
2016-10-06T23:26:48.213Z,952.58
2016-10-06T23:27:48.233Z,952.58
2016-10-06T23:28:48.253Z,952.53
2016-10-06T23:29:48.276Z,952.53
2016-10-06T23:30:48.293Z,952.53
2016-10-06T23:31:48.313Z,952.56
2016-10-06T23:32:48.331Z,952.59
2016-10-06T23:33:48.352Z,952.62
2016-10-06T23:34:48.373Z,952.55
2016-10-06T23:35:48.392Z,952.58
2016-10-06T23:36:48.411Z,952.59
2016-10-06T23:37:48.432Z,952.58
2016-10-06T23:38:48.451Z,952.57
2016-10-06T23:39:48.469Z,952.52
2016-10-06T23:40:48.491Z,952.57
2016-10-06T23:41:48.510Z,952.56
2016-10-06T23:42:48.530Z,952.61
2016-10-06T23:43:48.550Z,952.61
2016-10-06T23:44:48.570Z,952.6
2016-10-06T23:45:48.589Z,952.61
2016-10-06T23:46:48.609Z,952.66
2016-10-06T23:47:48.629Z,952.65
2016-10-06T23:48:48.649Z,952.66
2016-10-06T23:49:48.668Z,952.7
2016-10-06T23:50:48.687Z,952.67
2016-10-06T23:51:48.707Z,952.66
2016-10-06T23:52:48.728Z,952.7
2016-10-06T23:53:48.746Z,952.69
2016-10-06T23:54:48.766Z,952.71
2016-10-06T23:55:48.786Z,952.67
2016-10-06T23:56:48.806Z,952.7
2016-10-06T23:57:48.825Z,952.7
2016-10-06T23:58:48.844Z,952.71
2016-10-06T23:59:48.865Z,952.74
